createdAt,value
2022-07-27T00:01:15.031Z,99.90
2022-07-27T00:03:46.161Z,99.90
2022-07-27T00:06:14.760Z,99.90
2022-07-27T00:08:42.757Z,99.90
2022-07-27T00:11:11.580Z,99.90
2022-07-27T00:13:40.667Z,99.90
2022-07-27T00:16:08.974Z,99.90
2022-07-27T00:18:36.985Z,99.90
2022-07-27T00:21:06.480Z,99.90
2022-07-27T00:23:35.074Z,99.90
2022-07-27T00:26:03.100Z,99.90
2022-07-27T00:28:31.465Z,99.90
2022-07-27T00:30:59.809Z,99.90
2022-07-27T00:33:28.321Z,99.90
2022-07-27T00:35:56.374Z,99.90
2022-07-27T00:38:25.977Z,99.90
2022-07-27T00:40:54.061Z,99.90
2022-07-27T00:43:22.076Z,99.90
2022-07-27T00:45:50.110Z,99.90
2022-07-27T00:48:18.195Z,99.90
2022-07-27T00:50:48.095Z,99.90
2022-07-27T00:53:16.788Z,99.90
2022-07-27T00:55:47.061Z,99.90
2022-07-27T00:58:15.528Z,99.90
2022-07-27T01:00:43.619Z,99.90
2022-07-27T01:03:12.115Z,99.90
2022-07-27T01:05:42.925Z,99.90
2022-07-27T01:08:13.929Z,99.90
2022-07-27T01:10:43.981Z,99.90
2022-07-27T01:13:14.138Z,99.90
2022-07-27T01:15:43.207Z,99.90
2022-07-27T01:18:27.475Z,99.90
2022-07-27T01:20:56.101Z,99.90
2022-07-27T01:23:25.992Z,99.90
2022-07-27T01:25:54.092Z,99.90
2022-07-27T01:28:22.149Z,99.90
2022-07-27T01:30:50.201Z,99.90
2022-07-27T01:33:18.384Z,99.90
2022-07-27T01:35:46.373Z,99.90
2022-07-27T01:38:14.642Z,99.90
2022-07-27T01:40:43.972Z,99.90
2022-07-27T01:43:12.191Z,99.90
2022-07-27T01:45:41.012Z,99.90
2022-07-27T01:48:10.144Z,99.90
2022-07-27T01:50:39.213Z,99.90
2022-07-27T01:53:10.077Z,99.90
2022-07-27T01:55:39.354Z,99.90
2022-07-27T01:58:09.908Z,99.90
2022-07-27T02:00:38.115Z,99.90
2022-07-27T02:03:08.337Z,99.90
2022-07-27T02:05:37.460Z,99.90
2022-07-27T02:08:07.746Z,99.90
2022-07-27T02:10:36.456Z,99.90
2022-07-27T02:13:22.933Z,99.90
2022-07-27T02:15:54.700Z,99.90
2022-07-27T02:18:32.682Z,99.90
2022-07-27T02:21:01.969Z,99.90
2022-07-27T02:23:31.413Z,99.90
2022-07-27T02:25:59.468Z,99.90
2022-07-27T02:28:27.686Z,99.90
2022-07-27T02:30:57.039Z,99.90
2022-07-27T02:33:25.351Z,99.90
2022-07-27T02:35:53.534Z,99.90
2022-07-27T02:38:21.584Z,99.90
2022-07-27T02:40:49.628Z,99.90
2022-07-27T02:43:17.578Z,99.90
2022-07-27T02:45:46.423Z,99.90
2022-07-27T02:48:16.281Z,99.90
2022-07-27T02:50:44.368Z,99.90
2022-07-27T02:53:12.348Z,99.90
2022-07-27T02:55:40.687Z,99.90
2022-07-27T02:58:08.687Z,99.90
2022-07-27T03:00:36.704Z,99.90
2022-07-27T03:03:05.079Z,99.90
2022-07-27T03:05:34.503Z,99.90
2022-07-27T03:08:03.962Z,99.90
2022-07-27T03:10:32.286Z,99.90
2022-07-27T03:13:00.267Z,99.90
2022-07-27T03:15:29.575Z,99.90
2022-07-27T03:17:57.863Z,99.90
2022-07-27T03:20:25.926Z,99.90
2022-07-27T03:22:55.741Z,99.90
2022-07-27T03:25:24.024Z,99.90
2022-07-27T03:27:51.991Z,99.90
2022-07-27T03:30:20.144Z,99.90
2022-07-27T03:32:48.821Z,99.90
2022-07-27T03:35:17.157Z,99.90
2022-07-27T03:37:48.012Z,99.90
2022-07-27T03:40:17.742Z,99.90
2022-07-27T03:42:46.109Z,99.90
2022-07-27T03:45:14.200Z,99.90
2022-07-27T03:47:42.164Z,99.90
2022-07-27T03:50:10.529Z,99.90
2022-07-27T03:52:38.915Z,99.90
2022-07-27T03:55:08.406Z,99.90
2022-07-27T03:57:38.079Z,99.90
2022-07-27T04:00:08.543Z,99.90
2022-07-27T04:02:36.617Z,99.90
2022-07-27T04:05:05.260Z,99.90
2022-07-27T04:07:33.334Z,99.90
2022-07-27T04:10:01.426Z,99.90
2022-07-27T04:12:31.862Z,99.90
2022-07-27T04:15:01.255Z,99.90
2022-07-27T04:17:55.422Z,99.90
2022-07-27T04:20:17.610Z,99.90
2022-07-27T04:22:45.606Z,99.90
2022-07-27T04:25:13.710Z,99.90
2022-07-27T04:27:41.674Z,99.90
2022-07-27T04:30:12.331Z,99.90
2022-07-27T04:32:40.480Z,99.90
2022-07-27T04:35:09.775Z,99.90
2022-07-27T04:37:37.763Z,99.90
2022-07-27T04:40:07.740Z,99.90
2022-07-27T04:42:35.750Z,99.90
2022-07-27T04:45:03.920Z,99.90
2022-07-27T04:47:33.271Z,99.90
2022-07-27T04:50:01.297Z,99.90
2022-07-27T04:52:29.262Z,99.90
2022-07-27T04:54:57.329Z,99.90
2022-07-27T04:57:25.329Z,99.90
2022-07-27T04:59:53.346Z,99.90
2022-07-27T05:02:21.565Z,99.90
2022-07-27T05:04:51.230Z,99.90
2022-07-27T05:07:19.398Z,99.90
2022-07-27T05:09:47.575Z,99.90
2022-07-27T05:12:15.574Z,99.90
2022-07-27T05:14:43.709Z,99.90
2022-07-27T05:17:11.730Z,99.90
2022-07-27T05:19:41.041Z,99.90
2022-07-27T05:22:10.688Z,99.90
2022-07-27T05:24:38.657Z,99.90
2022-07-27T05:27:06.954Z,99.90
2022-07-27T05:29:35.150Z,99.90
2022-07-27T05:32:03.257Z,99.90
2022-07-27T05:34:31.314Z,99.90
2022-07-27T05:36:59.325Z,99.90
2022-07-27T05:39:28.636Z,99.90
2022-07-27T05:41:57.080Z,99.90
2022-07-27T05:44:25.056Z,99.90
2022-07-27T05:46:53.030Z,99.90
2022-07-27T05:49:21.495Z,99.90
2022-07-27T05:51:49.920Z,99.90
2022-07-27T05:54:18.484Z,99.90
2022-07-27T05:56:47.860Z,99.90
2022-07-27T05:59:15.881Z,99.90
2022-07-27T06:01:44.014Z,99.90
2022-07-27T06:04:14.624Z,99.90
2022-07-27T06:07:02.672Z,99.90
2022-07-27T06:09:30.873Z,99.90
2022-07-27T06:12:00.194Z,99.90
2022-07-27T06:14:28.238Z,99.30
2022-07-27T06:16:56.366Z,98.70
2022-07-27T06:19:24.368Z,97.60
2022-07-27T06:22:04.468Z,93.90
2022-07-27T06:24:32.426Z,87.50
2022-07-27T06:27:01.968Z,81.70
2022-07-27T06:29:30.161Z,81.00
2022-07-27T06:31:58.221Z,83.90
2022-07-27T06:34:27.628Z,87.10
2022-07-27T06:36:58.126Z,90.00
2022-07-27T06:39:26.118Z,91.20
2022-07-27T06:41:58.054Z,91.80
2022-07-27T06:44:27.745Z,91.50
2022-07-27T06:46:55.819Z,90.50
2022-07-27T06:49:23.978Z,90.40
2022-07-27T06:51:53.166Z,90.60
2022-07-27T06:54:21.200Z,89.70
2022-07-27T06:56:49.522Z,89.50
2022-07-27T06:59:17.534Z,86.00
2022-07-27T07:01:48.950Z,79.80
2022-07-27T07:04:17.283Z,72.10
2022-07-27T07:06:51.453Z,62.30
2022-07-27T07:09:19.394Z,56.30
2022-07-27T07:11:47.431Z,53.80
2022-07-27T07:14:15.401Z,51.90
2022-07-27T07:16:43.490Z,50.10
2022-07-27T07:19:13.499Z,49.30
2022-07-27T07:21:41.760Z,48.80
2022-07-27T07:24:10.203Z,47.30
2022-07-27T07:26:39.431Z,47.40
2022-07-27T07:29:08.084Z,47.10
2022-07-27T07:31:36.227Z,46.80
2022-07-27T07:34:04.372Z,47.10
2022-07-27T07:36:33.698Z,46.60
2022-07-27T07:39:01.855Z,45.90
2022-07-27T07:41:29.886Z,46.20
2022-07-27T07:43:57.831Z,46.00
2022-07-27T07:46:26.118Z,45.20
2022-07-27T07:48:54.211Z,46.60
2022-07-27T07:51:22.350Z,48.60
2022-07-27T07:53:51.614Z,48.10
2022-07-27T07:56:19.654Z,47.20
2022-07-27T07:58:48.761Z,46.20
2022-07-27T08:01:16.807Z,45.30
2022-07-27T08:03:50.579Z,44.40
2022-07-27T08:06:19.201Z,44.20
2022-07-27T08:08:47.189Z,43.50
2022-07-27T08:11:16.720Z,42.40
2022-07-27T08:13:45.600Z,43.00
2022-07-27T08:16:13.687Z,42.70
2022-07-27T08:18:41.778Z,42.00
2022-07-27T08:21:10.214Z,42.60
2022-07-27T08:23:38.440Z,43.00
2022-07-27T08:26:08.159Z,42.90
2022-07-27T08:28:37.695Z,42.40
2022-07-27T08:31:14.750Z,40.80
2022-07-27T08:33:45.244Z,40.70
2022-07-27T08:36:13.221Z,40.70
2022-07-27T08:38:41.287Z,39.90
2022-07-27T08:41:11.324Z,40.00
2022-07-27T08:43:43.106Z,38.90
2022-07-27T08:46:12.201Z,40.40
2022-07-27T08:48:41.271Z,41.20
2022-07-27T08:51:09.341Z,41.40
2022-07-27T08:56:22.143Z,41.00
2022-07-27T08:58:51.871Z,38.80
2022-07-27T09:01:20.184Z,40.00
2022-07-27T09:03:48.426Z,41.20
2022-07-27T09:06:40.660Z,41.70
2022-07-27T09:09:08.878Z,42.80
2022-07-27T09:11:37.449Z,43.80
2022-07-27T09:14:08.694Z,45.20
2022-07-27T09:17:14.725Z,45.10
2022-07-27T09:19:25.823Z,45.70
2022-07-27T09:21:54.115Z,44.20
2022-07-27T09:24:45.764Z,42.20
2022-07-27T09:27:11.079Z,41.20
2022-07-27T09:29:40.370Z,40.80
2022-07-27T09:32:15.998Z,39.40
2022-07-27T09:34:44.537Z,38.20
2022-07-27T09:37:12.656Z,38.40
2022-07-27T09:39:40.965Z,38.30
2022-07-27T09:42:47.864Z,38.30
2022-07-27T09:45:35.348Z,39.00
2022-07-27T09:48:16.146Z,38.90
2022-07-27T09:51:01.370Z,40.70
2022-07-27T09:53:43.418Z,42.10
2022-07-27T09:56:17.512Z,40.70
2022-07-27T09:58:47.770Z,39.50
2022-07-27T10:01:21.398Z,38.10
2022-07-27T10:03:51.033Z,38.30
2022-07-27T10:06:19.085Z,38.70
2022-07-27T10:08:48.698Z,38.30
2022-07-27T10:11:17.883Z,36.90
2022-07-27T10:13:45.884Z,37.90
2022-07-27T10:16:16.829Z,39.90
2022-07-27T10:18:59.688Z,41.60
2022-07-27T10:21:28.254Z,42.90
2022-07-27T10:23:58.735Z,41.90
2022-07-27T10:26:34.025Z,39.90
2022-07-27T10:29:04.797Z,39.60
2022-07-27T10:31:34.283Z,38.40
2022-07-27T10:34:05.350Z,37.90
2022-07-27T10:36:54.133Z,40.20
2022-07-27T10:39:34.566Z,41.90
2022-07-27T10:42:30.004Z,42.20
2022-07-27T10:45:08.975Z,43.60
2022-07-27T10:47:39.670Z,43.60
2022-07-27T10:50:31.177Z,44.80
2022-07-27T10:53:03.150Z,46.50
2022-07-27T10:55:51.506Z,47.30
2022-07-27T10:58:49.226Z,47.70
2022-07-27T11:01:19.078Z,46.80
2022-07-27T11:03:55.930Z,46.80
2022-07-27T11:06:34.738Z,47.10
2022-07-27T11:11:59.668Z,47.00
2022-07-27T11:14:30.861Z,46.40
2022-07-27T11:17:24.288Z,46.70
2022-07-27T11:19:55.926Z,47.00
2022-07-27T11:22:58.856Z,47.00
2022-07-27T11:25:21.618Z,46.50
2022-07-27T11:27:50.542Z,45.90
2022-07-27T11:30:26.080Z,46.20
2022-07-27T11:32:54.627Z,46.60
2022-07-27T11:35:22.645Z,46.10
2022-07-27T11:38:06.490Z,46.00
2022-07-27T11:43:38.579Z,46.70
2022-07-27T11:46:15.004Z,46.50
2022-07-27T11:49:13.363Z,46.50
2022-07-27T11:51:44.182Z,46.10
2022-07-27T11:54:19.044Z,45.80
2022-07-27T11:56:49.230Z,45.10
2022-07-27T11:59:19.727Z,45.30
2022-07-27T12:01:51.100Z,44.80
2022-07-27T12:04:22.433Z,44.70
2022-07-27T12:06:57.969Z,45.30
2022-07-27T12:09:28.672Z,45.30
2022-07-27T12:12:15.239Z,44.80
2022-07-27T12:14:45.872Z,44.70
2022-07-27T12:17:28.809Z,44.70
2022-07-27T12:20:02.945Z,45.30
2022-07-27T12:22:34.947Z,45.40
2022-07-27T12:25:11.282Z,45.70
2022-07-27T12:27:54.823Z,45.70
2022-07-27T12:30:31.155Z,45.50
2022-07-27T12:32:59.824Z,45.40
2022-07-27T12:35:37.050Z,45.20
2022-07-27T12:38:10.220Z,45.20
2022-07-27T12:40:47.112Z,45.00
2022-07-27T12:43:18.114Z,45.10
2022-07-27T12:45:47.964Z,44.80
2022-07-27T12:48:18.991Z,44.00
2022-07-27T12:50:48.496Z,44.10
2022-07-27T12:53:17.908Z,43.90
2022-07-27T12:55:47.218Z,43.80
2022-07-27T12:58:15.245Z,43.60
2022-07-27T13:00:43.622Z,43.50
2022-07-27T13:03:11.793Z,43.10
2022-07-27T13:05:39.798Z,43.00
2022-07-27T13:08:09.306Z,42.00
2022-07-27T13:10:39.491Z,41.90
2022-07-27T13:13:09.801Z,41.70
2022-07-27T13:15:37.988Z,42.00
2022-07-27T13:18:06.219Z,42.30
2022-07-27T13:20:36.650Z,42.70
2022-07-27T13:23:07.571Z,43.20
2022-07-27T13:25:41.075Z,43.70
2022-07-27T13:28:13.239Z,43.80
2022-07-27T13:30:41.375Z,42.30
2022-07-27T13:33:09.508Z,41.90
2022-07-27T13:35:37.521Z,42.30
2022-07-27T13:38:05.522Z,43.00
2022-07-27T13:40:33.814Z,43.10
2022-07-27T13:43:01.741Z,43.30
2022-07-27T13:45:42.996Z,43.40
2022-07-27T13:48:12.812Z,43.00
2022-07-27T13:50:41.309Z,43.30
2022-07-27T13:53:09.295Z,43.70
2022-07-27T13:55:43.036Z,44.00
2022-07-27T13:58:11.716Z,43.50
2022-07-27T14:00:41.604Z,43.30
2022-07-27T14:03:10.237Z,43.20
2022-07-27T14:05:43.566Z,42.80
2022-07-27T14:08:18.047Z,43.30
2022-07-27T14:10:46.127Z,43.50
2022-07-27T14:13:17.377Z,43.40
2022-07-27T14:15:53.380Z,43.40
2022-07-27T14:18:28.543Z,43.90
2022-07-27T14:20:58.264Z,44.50
2022-07-27T14:23:27.386Z,45.10
2022-07-27T14:25:56.492Z,45.30
2022-07-27T14:28:26.351Z,45.30
2022-07-27T14:30:56.635Z,44.90
2022-07-27T14:33:25.777Z,44.60
2022-07-27T14:35:59.977Z,44.50
2022-07-27T14:38:30.625Z,44.30
2022-07-27T14:41:00.579Z,44.40
2022-07-27T14:43:29.546Z,44.90
2022-07-27T14:45:59.225Z,44.60
2022-07-27T14:48:48.573Z,44.00
2022-07-27T14:51:15.525Z,44.20
2022-07-27T14:53:44.543Z,44.50
2022-07-27T14:56:12.519Z,44.20
2022-07-27T14:58:40.463Z,44.50
2022-07-27T15:01:09.917Z,44.20
2022-07-27T15:03:37.950Z,43.90
2022-07-27T15:06:06.020Z,44.40
2022-07-27T15:08:34.022Z,44.60
2022-07-27T15:11:02.025Z,44.20
2022-07-27T15:13:30.169Z,44.20
2022-07-27T15:15:58.457Z,43.90
2022-07-27T15:18:27.740Z,44.10
2022-07-27T15:20:55.854Z,44.60
2022-07-27T15:23:23.866Z,44.40
2022-07-27T15:25:52.102Z,44.20
2022-07-27T15:28:20.090Z,44.50
2022-07-27T15:30:48.677Z,45.10
2022-07-27T15:33:16.608Z,45.30
2022-07-27T15:35:46.021Z,45.30
2022-07-27T15:38:14.006Z,45.50
2022-07-27T15:40:42.431Z,46.00
2022-07-27T15:43:12.926Z,46.50
2022-07-27T15:45:42.245Z,46.20
2022-07-27T15:48:11.879Z,46.60
2022-07-27T15:50:41.752Z,46.30
2022-07-27T15:53:13.080Z,46.00
2022-07-27T15:55:42.661Z,45.70
2022-07-27T15:58:11.059Z,45.60
2022-07-27T16:00:41.165Z,45.50
2022-07-27T16:03:10.455Z,46.20
2022-07-27T16:05:38.818Z,46.10
2022-07-27T16:08:09.430Z,45.40
2022-07-27T16:10:39.388Z,45.10
2022-07-27T16:13:07.954Z,45.40
2022-07-27T16:15:55.359Z,46.70
2022-07-27T16:18:24.824Z,45.70
2022-07-27T16:20:53.160Z,45.20
2022-07-27T16:23:22.318Z,45.00
2022-07-27T16:26:05.460Z,45.00
2022-07-27T16:28:36.539Z,45.00
2022-07-27T16:31:05.830Z,45.10
2022-07-27T16:33:33.845Z,45.00
2022-07-27T16:36:01.905Z,45.70
2022-07-27T16:38:30.523Z,45.60
2022-07-27T16:40:59.909Z,45.50
2022-07-27T16:43:37.354Z,46.00
2022-07-27T16:46:07.951Z,46.10
2022-07-27T16:48:42.477Z,45.40
2022-07-27T16:51:12.610Z,45.50
2022-07-27T16:53:42.412Z,45.30
2022-07-27T16:56:12.383Z,45.90
2022-07-27T16:58:40.601Z,45.90
2022-07-27T17:01:09.338Z,45.80
2022-07-27T17:03:37.726Z,45.70
2022-07-27T17:06:07.176Z,45.40
2022-07-27T17:08:36.173Z,45.30
2022-07-27T17:11:06.069Z,45.10
2022-07-27T17:13:36.963Z,46.10
2022-07-27T17:16:07.315Z,46.70
2022-07-27T17:18:40.173Z,47.20
2022-07-27T17:21:12.127Z,46.90
2022-07-27T17:23:40.401Z,47.40
2022-07-27T17:26:09.616Z,46.90
2022-07-27T17:28:40.196Z,47.10
2022-07-27T17:31:10.108Z,47.10
2022-07-27T17:33:38.790Z,47.40
2022-07-27T17:36:14.097Z,47.20
2022-07-27T17:38:43.697Z,47.30
2022-07-27T17:41:11.856Z,47.10
2022-07-27T17:43:41.286Z,47.00
2022-07-27T17:46:11.010Z,47.10
2022-07-27T17:48:39.894Z,47.30
2022-07-27T17:51:10.341Z,47.80
2022-07-27T17:53:38.460Z,47.80
2022-07-27T17:56:08.164Z,48.00
2022-07-27T17:58:36.688Z,47.80
2022-07-27T18:01:06.322Z,47.70
2022-07-27T18:03:34.775Z,47.40
2022-07-27T18:06:02.862Z,47.40
2022-07-27T18:08:31.123Z,47.60
2022-07-27T18:10:59.506Z,48.00
2022-07-27T18:13:38.867Z,48.50
2022-07-27T18:16:11.549Z,48.60
2022-07-27T18:18:40.557Z,48.90
2022-07-27T18:21:10.434Z,48.80
2022-07-27T18:23:38.701Z,49.40
2022-07-27T18:26:07.531Z,48.90
2022-07-27T18:28:39.537Z,49.10
2022-07-27T18:31:12.153Z,49.60
2022-07-27T18:33:45.615Z,50.10
2022-07-27T18:36:13.890Z,49.90
2022-07-27T18:38:41.954Z,50.10
2022-07-27T18:41:10.093Z,50.20
2022-07-27T18:43:38.108Z,50.60
2022-07-27T18:46:06.236Z,50.70
2022-07-27T18:48:35.711Z,50.80
2022-07-27T18:51:03.903Z,51.10
2022-07-27T18:53:32.040Z,51.40
2022-07-27T18:56:00.131Z,51.50
2022-07-27T18:58:28.512Z,51.70
2022-07-27T19:00:58.166Z,52.20
2022-07-27T19:03:27.945Z,52.00
2022-07-27T19:05:58.157Z,52.30
2022-07-27T19:08:26.956Z,52.40
2022-07-27T19:10:54.910Z,52.50
2022-07-27T19:13:23.181Z,52.80
2022-07-27T19:15:51.115Z,52.70
2022-07-27T19:18:19.589Z,53.00
2022-07-27T19:20:48.084Z,52.80
2022-07-27T19:23:17.441Z,52.90
2022-07-27T19:25:46.087Z,53.00
2022-07-27T19:28:18.906Z,53.30
2022-07-27T19:30:47.335Z,53.40
2022-07-27T19:33:16.086Z,53.60
2022-07-27T19:35:44.095Z,53.60
2022-07-27T19:38:13.116Z,53.60
2022-07-27T19:40:45.410Z,53.70
2022-07-27T19:43:15.160Z,54.10
2022-07-27T19:45:43.309Z,53.80
2022-07-27T19:48:11.984Z,53.80
2022-07-27T19:50:40.272Z,54.00
2022-07-27T19:53:08.856Z,54.00
2022-07-27T19:55:36.911Z,54.20
2022-07-27T19:58:06.331Z,54.50
2022-07-27T20:00:34.412Z,54.00
2022-07-27T20:03:03.115Z,54.80
2022-07-27T20:05:31.376Z,54.20
2022-07-27T20:07:59.647Z,54.00
2022-07-27T20:10:27.650Z,54.40
2022-07-27T20:12:55.708Z,54.30
2022-07-27T20:15:25.291Z,54.50
2022-07-27T20:17:53.293Z,54.50
2022-07-27T20:20:21.252Z,54.90
2022-07-27T20:22:49.722Z,55.00
2022-07-27T20:25:18.665Z,55.00
2022-07-27T20:27:47.389Z,55.30
2022-07-27T20:30:17.208Z,55.10
2022-07-27T20:32:47.442Z,55.20
2022-07-27T20:35:15.842Z,55.40
2022-07-27T20:37:44.165Z,55.60
2022-07-27T20:40:13.068Z,55.50
2022-07-27T20:42:41.960Z,55.40
2022-07-27T20:45:12.716Z,55.90
2022-07-27T20:47:40.819Z,56.10
2022-07-27T20:50:12.348Z,56.10
2022-07-27T20:52:41.396Z,56.10
2022-07-27T20:55:10.715Z,55.90
2022-07-27T20:57:38.960Z,56.30
2022-07-27T21:00:08.384Z,56.10
2022-07-27T21:02:36.518Z,56.00
2022-07-27T21:05:05.061Z,56.10
2022-07-27T21:07:34.537Z,56.30
2022-07-27T21:10:03.242Z,56.30
2022-07-27T21:12:31.330Z,56.60
2022-07-27T21:14:59.359Z,56.90
2022-07-27T21:17:27.414Z,56.80
2022-07-27T21:19:55.451Z,57.10
2022-07-27T21:22:23.433Z,57.30
2022-07-27T21:24:52.820Z,57.30
2022-07-27T21:27:21.512Z,57.30
2022-07-27T21:29:49.852Z,57.00
2022-07-27T21:32:18.339Z,57.10
2022-07-27T21:34:46.719Z,57.40
2022-07-27T21:37:14.923Z,57.80
2022-07-27T21:39:45.583Z,57.50
2022-07-27T21:42:14.906Z,57.60
2022-07-27T21:44:42.949Z,58.20
2022-07-27T21:47:14.332Z,58.10
2022-07-27T21:49:42.930Z,58.50
2022-07-27T21:52:12.093Z,58.40
2022-07-27T21:54:40.694Z,58.80
2022-07-27T21:57:08.655Z,58.90
2022-07-27T21:59:38.016Z,59.20
2022-07-27T22:02:05.997Z,59.40
2022-07-27T22:04:34.217Z,59.50
2022-07-27T22:07:02.509Z,59.60
2022-07-27T22:09:30.584Z,60.40
2022-07-27T22:11:58.666Z,60.60
2022-07-27T22:14:26.833Z,60.40
2022-07-27T22:16:56.568Z,60.60
2022-07-27T22:19:24.668Z,60.80
2022-07-27T22:21:52.654Z,60.90
2022-07-27T22:24:20.703Z,60.80
2022-07-27T22:26:49.721Z,61.00
2022-07-27T22:29:17.984Z,61.50
2022-07-27T22:31:46.037Z,61.70
2022-07-27T22:34:15.720Z,62.00
2022-07-27T22:36:43.990Z,62.00
2022-07-27T22:39:12.877Z,62.70
2022-07-27T22:41:41.406Z,63.10
2022-07-27T22:44:09.452Z,63.40
2022-07-27T22:46:37.461Z,63.80
2022-07-27T22:49:05.672Z,64.20
2022-07-27T22:51:49.550Z,64.10
2022-07-27T22:54:18.730Z,64.30
2022-07-27T22:56:47.354Z,64.50
2022-07-27T22:59:15.576Z,64.00
2022-07-27T23:01:46.659Z,64.10
2022-07-27T23:04:17.393Z,64.30
2022-07-27T23:06:47.354Z,64.70
2022-07-27T23:09:16.053Z,64.60
2022-07-27T23:11:44.983Z,64.60
2022-07-27T23:14:13.766Z,65.00
2022-07-27T23:16:42.629Z,65.00
2022-07-27T23:19:11.081Z,65.60
2022-07-27T23:21:39.414Z,66.20
2022-07-27T23:24:09.184Z,66.30
2022-07-27T23:26:38.015Z,66.60
2022-07-27T23:29:06.038Z,66.70
2022-07-27T23:31:34.399Z,66.80
2022-07-27T23:34:02.437Z,67.00
2022-07-27T23:36:30.404Z,66.90
2022-07-27T23:38:58.397Z,67.20
2022-07-27T23:41:28.248Z,67.30
2022-07-27T23:43:56.415Z,67.90
2022-07-27T23:46:24.734Z,67.60
2022-07-27T23:48:52.810Z,68.30
2022-07-27T23:51:21.238Z,68.40
2022-07-27T23:53:49.727Z,68.60
2022-07-27T23:56:17.700Z,69.20
2022-07-27T23:58:47.338Z,69.00
